createdAt,value
2024-02-23T00:00:47.283Z,44.29
2024-02-23T00:03:13.729Z,44.18
2024-02-23T00:05:40.173Z,44.24
2024-02-23T00:08:07.832Z,44.10
2024-02-23T00:10:34.454Z,44.12
2024-02-23T00:13:02.108Z,44.13
2024-02-23T00:15:28.643Z,44.09
2024-02-23T00:17:55.254Z,44.15
2024-02-23T00:20:21.824Z,44.15
2024-02-23T00:22:48.287Z,44.06
2024-02-23T00:25:15.293Z,44.05
2024-02-23T00:27:43.119Z,44.20
2024-02-23T00:30:09.716Z,44.19
2024-02-23T00:32:36.196Z,44.63
2024-02-23T00:35:02.704Z,44.47
2024-02-23T00:37:29.233Z,44.52
2024-02-23T00:39:55.650Z,44.61
2024-02-23T00:42:22.141Z,44.59
2024-02-23T00:44:48.565Z,44.54
2024-02-23T00:47:15.049Z,44.56
2024-02-23T00:49:41.450Z,44.51
2024-02-23T00:52:07.884Z,44.59
2024-02-23T00:54:34.326Z,44.60
2024-02-23T00:57:00.820Z,44.56
2024-02-23T00:59:27.456Z,44.48
2024-02-23T01:01:54.185Z,44.58
2024-02-23T01:04:20.701Z,44.46
2024-02-23T01:06:47.156Z,44.40
2024-02-23T01:09:14.314Z,44.40
2024-02-23T01:11:40.907Z,44.46
2024-02-23T01:14:08.121Z,44.47
2024-02-23T01:16:34.663Z,44.45
2024-02-23T01:19:01.079Z,44.32
2024-02-23T01:21:27.502Z,44.41
2024-02-23T01:23:53.930Z,44.40
2024-02-23T01:26:20.403Z,44.39
2024-02-23T01:28:46.969Z,44.39
2024-02-23T01:31:14.374Z,44.26
2024-02-23T01:33:41.004Z,44.33
2024-02-23T01:36:07.841Z,44.14
2024-02-23T01:38:34.598Z,44.23
2024-02-23T01:41:01.233Z,44.26
2024-02-23T01:43:28.146Z,44.32
2024-02-23T01:45:54.989Z,44.20
2024-02-23T01:48:21.984Z,44.29
2024-02-23T01:50:48.732Z,44.12
2024-02-23T01:53:15.254Z,44.21
2024-02-23T01:55:42.211Z,44.36
2024-02-23T01:58:09.066Z,44.38
2024-02-23T02:00:36.145Z,44.27
2024-02-23T02:03:02.662Z,44.14
2024-02-23T02:05:29.773Z,44.15
2024-02-23T02:08:00.084Z,44.18
2024-02-23T02:10:27.886Z,44.15
2024-02-23T02:12:54.298Z,44.10
2024-02-23T02:15:23.020Z,44.22
2024-02-23T02:17:49.759Z,44.20
2024-02-23T02:20:19.861Z,44.02
2024-02-23T02:22:46.451Z,44.13
2024-02-23T02:25:15.044Z,44.19
2024-02-23T02:27:41.498Z,44.04
2024-02-23T02:30:08.332Z,44.01
2024-02-23T02:32:37.321Z,44.05
2024-02-23T02:35:04.744Z,44.12
2024-02-23T02:37:31.225Z,43.94
2024-02-23T02:39:57.716Z,43.99
2024-02-23T02:42:24.118Z,44.08
2024-02-23T02:44:50.617Z,44.00
2024-02-23T02:47:17.038Z,44.05
2024-02-23T02:49:43.509Z,44.11
2024-02-23T02:52:10.309Z,43.85
2024-02-23T02:54:36.738Z,43.92
2024-02-23T02:57:03.357Z,43.86
2024-02-23T02:59:29.880Z,44.01
2024-02-23T03:01:58.334Z,43.92
2024-02-23T03:04:24.863Z,43.72
2024-02-23T03:06:51.386Z,43.78
2024-02-23T03:09:17.803Z,43.50
2024-02-23T03:11:44.300Z,43.46
2024-02-23T03:14:11.297Z,43.33
2024-02-23T03:16:38.763Z,43.38
2024-02-23T03:19:05.637Z,43.35
2024-02-23T03:21:32.175Z,43.42
2024-02-23T03:23:58.661Z,43.30
2024-02-23T03:26:25.247Z,43.22
2024-02-23T03:28:51.729Z,43.47
2024-02-23T03:31:18.425Z,43.71
2024-02-23T03:33:44.945Z,43.85
2024-02-23T03:36:11.450Z,43.66
2024-02-23T03:38:37.977Z,43.51
2024-02-23T03:41:04.660Z,43.30
2024-02-23T03:43:34.208Z,43.35
2024-02-23T03:46:01.048Z,43.28
2024-02-23T03:48:27.524Z,43.22
2024-02-23T03:50:55.417Z,43.07
2024-02-23T03:53:21.950Z,43.11
2024-02-23T03:55:48.506Z,43.12
2024-02-23T03:58:14.990Z,42.85
2024-02-23T04:00:41.463Z,42.85
2024-02-23T04:03:07.868Z,42.73
2024-02-23T04:05:34.357Z,42.79
2024-02-23T04:08:00.957Z,42.81
2024-02-23T04:10:27.479Z,42.60
2024-02-23T04:12:53.897Z,42.58
2024-02-23T04:15:20.430Z,42.50
2024-02-23T04:17:47.345Z,42.54
2024-02-23T04:20:14.732Z,42.48
2024-02-23T04:22:41.484Z,42.33
2024-02-23T04:25:08.139Z,42.30
2024-02-23T04:27:34.610Z,42.25
2024-02-23T04:30:01.050Z,42.07
2024-02-23T04:32:27.604Z,42.15
2024-02-23T04:34:54.135Z,42.02
2024-02-23T04:37:20.643Z,41.94
2024-02-23T04:39:47.111Z,42.06
2024-02-23T04:42:13.529Z,41.97
2024-02-23T04:44:42.030Z,41.85
2024-02-23T04:47:08.593Z,41.87
2024-02-23T04:49:35.120Z,41.74
2024-02-23T04:52:01.611Z,41.66
2024-02-23T04:54:28.117Z,41.74
2024-02-23T04:56:54.578Z,41.58
2024-02-23T04:59:21.049Z,41.69
2024-02-23T05:01:48.251Z,41.56
2024-02-23T05:04:14.665Z,41.58
2024-02-23T05:06:41.230Z,41.45
2024-02-23T05:09:10.447Z,41.51
2024-02-23T05:11:37.119Z,41.44
2024-02-23T05:14:03.640Z,41.34
2024-02-23T05:16:30.155Z,41.34
2024-02-23T05:18:56.557Z,41.35
2024-02-23T05:21:22.990Z,41.23
2024-02-23T05:23:49.377Z,41.30
2024-02-23T05:26:15.940Z,41.26
2024-02-23T05:28:42.651Z,41.23
2024-02-23T05:31:10.490Z,41.17
2024-02-23T05:33:37.664Z,41.16
2024-02-23T05:36:04.557Z,41.31
2024-02-23T05:38:31.678Z,41.18
2024-02-23T05:40:58.234Z,41.31
2024-02-23T05:43:24.893Z,41.57
2024-02-23T05:45:51.397Z,41.35
2024-02-23T05:48:20.074Z,41.32
2024-02-23T05:50:46.691Z,41.31
2024-02-23T05:53:13.140Z,41.27
2024-02-23T05:55:39.593Z,41.26
2024-02-23T05:58:06.527Z,41.35
2024-02-23T06:00:33.005Z,41.36
2024-02-23T06:02:59.455Z,41.38
2024-02-23T06:05:28.828Z,41.11
2024-02-23T06:07:55.970Z,41.11
2024-02-23T06:10:22.537Z,41.12
2024-02-23T06:12:48.986Z,41.06
2024-02-23T06:15:15.809Z,40.99
2024-02-23T06:17:42.300Z,41.07
2024-02-23T06:20:09.262Z,41.03
2024-02-23T06:22:35.693Z,40.99
2024-02-23T06:25:03.598Z,40.92
2024-02-23T06:27:31.152Z,40.93
2024-02-23T06:29:57.663Z,40.83
2024-02-23T06:32:24.261Z,40.95
2024-02-23T06:34:50.816Z,40.86
2024-02-23T06:37:17.407Z,40.70
2024-02-23T06:39:45.250Z,40.66
2024-02-23T06:42:11.701Z,40.75
2024-02-23T06:44:38.163Z,40.73
2024-02-23T06:47:04.812Z,40.73
2024-02-23T06:49:31.422Z,40.70
2024-02-23T06:51:57.946Z,40.69
2024-02-23T06:54:24.506Z,40.76
2024-02-23T06:56:50.918Z,40.63
2024-02-23T06:59:17.473Z,40.58
2024-02-23T07:01:50.923Z,40.61
2024-02-23T07:04:17.576Z,40.71
2024-02-23T07:06:44.399Z,40.54
2024-02-23T07:09:12.392Z,40.63
2024-02-23T07:11:39.990Z,40.61
2024-02-23T07:14:06.592Z,40.68
2024-02-23T07:16:33.259Z,40.64
2024-02-23T07:19:00.454Z,40.56
2024-02-23T07:21:27.016Z,40.63
2024-02-23T07:23:53.593Z,40.41
2024-02-23T07:26:21.604Z,40.39
2024-02-23T07:28:48.034Z,40.44
2024-02-23T07:31:14.454Z,40.52
2024-02-23T07:33:41.125Z,40.42
2024-02-23T07:36:09.869Z,40.52
2024-02-23T07:38:36.323Z,40.42
2024-02-23T07:41:02.803Z,40.32
2024-02-23T07:43:30.337Z,40.79
2024-02-23T07:45:56.850Z,41.70
2024-02-23T07:48:23.360Z,42.14
2024-02-23T07:50:49.856Z,42.58
2024-02-23T07:53:16.310Z,42.96
2024-02-23T07:55:42.726Z,43.16
2024-02-23T07:58:09.158Z,43.75
2024-02-23T08:00:39.047Z,43.95
2024-02-23T08:03:05.870Z,43.76
2024-02-23T08:05:32.349Z,44.00
2024-02-23T08:07:58.899Z,44.00
2024-02-23T08:10:26.991Z,44.08
2024-02-23T08:12:53.540Z,44.05
2024-02-23T08:15:20.038Z,43.76
2024-02-23T08:17:46.507Z,43.77
2024-02-23T08:20:13.192Z,43.74
2024-02-23T08:22:39.702Z,43.67
2024-02-23T08:25:06.298Z,43.65
2024-02-23T08:27:32.742Z,43.86
2024-02-23T08:29:59.168Z,43.78
2024-02-23T08:32:25.779Z,43.53
2024-02-23T08:34:54.093Z,43.57
2024-02-23T08:37:20.661Z,43.68
2024-02-23T08:39:47.087Z,43.61
2024-02-23T08:42:13.758Z,43.62
2024-02-23T08:44:40.467Z,43.72
2024-02-23T08:47:07.008Z,43.78
2024-02-23T08:49:33.510Z,43.48
2024-02-23T08:51:59.948Z,43.30
2024-02-23T08:54:26.387Z,42.87
2024-02-23T08:56:52.856Z,42.44
2024-02-23T08:59:19.372Z,42.51
2024-02-23T09:01:47.864Z,42.40
2024-02-23T09:04:14.491Z,42.17
2024-02-23T09:06:41.200Z,42.33
2024-02-23T09:09:07.826Z,42.41
2024-02-23T09:11:34.497Z,42.35
2024-02-23T09:14:01.024Z,42.27
2024-02-23T09:16:27.652Z,42.19
2024-02-23T09:18:54.136Z,42.17
2024-02-23T09:21:20.613Z,42.18
2024-02-23T09:23:47.228Z,41.81
2024-02-23T09:26:13.740Z,41.49
2024-02-23T09:28:43.036Z,40.44
2024-02-23T09:31:09.474Z,40.20
2024-02-23T09:33:36.048Z,39.08
2024-02-23T09:36:02.564Z,38.35
2024-02-23T09:38:29.299Z,38.12
2024-02-23T09:40:55.906Z,37.63
2024-02-23T09:43:23.209Z,36.81
2024-02-23T09:45:52.163Z,36.29
2024-02-23T09:48:20.009Z,35.75
2024-02-23T09:50:48.209Z,35.47
2024-02-23T09:53:15.260Z,35.49
2024-02-23T09:55:43.728Z,35.26
2024-02-23T09:58:11.872Z,35.26
2024-02-23T10:00:39.370Z,34.91
2024-02-23T10:03:06.789Z,34.73
2024-02-23T10:05:36.772Z,34.44
2024-02-23T10:08:05.646Z,34.32
2024-02-23T10:10:33.904Z,34.22
2024-02-23T10:13:01.021Z,33.94
2024-02-23T10:15:30.006Z,33.88
2024-02-23T10:17:56.764Z,33.60
2024-02-23T10:20:23.452Z,33.39
2024-02-23T10:22:50.375Z,33.12
2024-02-23T10:25:16.869Z,33.37
2024-02-23T10:27:46.067Z,33.19
2024-02-23T10:30:14.179Z,33.17
2024-02-23T10:32:41.716Z,33.91
2024-02-23T10:35:14.324Z,33.67
2024-02-23T10:37:43.415Z,32.91
2024-02-23T10:40:13.450Z,32.45
2024-02-23T10:42:41.955Z,32.00
2024-02-23T10:45:09.507Z,31.46
2024-02-23T10:47:36.743Z,31.21
2024-02-23T10:50:04.020Z,31.28
2024-02-23T10:52:31.461Z,31.16
2024-02-23T10:54:58.733Z,31.18
2024-02-23T10:57:25.770Z,31.08
2024-02-23T10:59:52.407Z,30.72
2024-02-23T11:02:21.480Z,30.48
2024-02-23T11:04:51.936Z,30.45
2024-02-23T11:07:20.329Z,30.55
2024-02-23T11:09:59.451Z,30.39
2024-02-23T11:12:26.601Z,30.47
2024-02-23T11:14:57.341Z,30.71
2024-02-23T11:17:23.990Z,30.65
2024-02-23T11:19:51.843Z,30.74
2024-02-23T11:22:37.203Z,30.85
2024-02-23T11:25:12.004Z,31.24
2024-02-23T11:27:41.587Z,31.32
2024-02-23T11:30:12.867Z,31.29
2024-02-23T11:32:44.422Z,31.30
2024-02-23T11:35:14.886Z,31.37
2024-02-23T11:38:05.343Z,31.53
2024-02-23T11:40:32.083Z,31.83
2024-02-23T11:42:59.078Z,31.86
2024-02-23T11:45:26.209Z,31.99
2024-02-23T11:47:53.208Z,31.85
2024-02-23T11:50:21.997Z,32.01
2024-02-23T11:52:49.080Z,31.99
2024-02-23T11:55:23.723Z,32.05
2024-02-23T11:57:56.586Z,32.30
2024-02-23T12:00:28.184Z,32.29
2024-02-23T12:02:54.602Z,32.21
2024-02-23T12:05:21.809Z,32.21
2024-02-23T12:07:48.464Z,32.24
2024-02-23T12:10:15.123Z,32.40
2024-02-23T12:12:54.778Z,32.38
2024-02-23T12:15:21.234Z,32.43
2024-02-23T12:17:48.786Z,32.55
2024-02-23T12:20:15.758Z,32.67
2024-02-23T12:22:42.506Z,32.52
2024-02-23T12:25:08.974Z,32.54
2024-02-23T12:27:35.601Z,32.46
2024-02-23T12:30:02.124Z,32.57
2024-02-23T12:32:28.698Z,32.52
2024-02-23T12:34:55.337Z,32.58
2024-02-23T12:37:23.735Z,32.47
2024-02-23T12:39:50.177Z,32.48
2024-02-23T12:42:16.775Z,32.61
2024-02-23T12:44:44.531Z,32.59
2024-02-23T12:47:10.971Z,32.50
2024-02-23T12:49:37.585Z,32.58
2024-02-23T12:52:04.357Z,32.56
2024-02-23T12:54:30.792Z,32.56
2024-02-23T12:56:58.159Z,32.64
2024-02-23T12:59:24.642Z,32.81
2024-02-23T13:01:53.259Z,32.73
2024-02-23T13:04:20.130Z,32.62
2024-02-23T13:06:46.714Z,32.67
2024-02-23T13:09:13.864Z,32.45
2024-02-23T13:11:40.875Z,32.49
2024-02-23T13:14:07.539Z,32.57
2024-02-23T13:16:33.964Z,32.66
2024-02-23T13:19:00.567Z,32.62
2024-02-23T13:21:27.005Z,32.78
2024-02-23T13:23:53.451Z,33.90
2024-02-23T13:26:20.273Z,35.12
2024-02-23T13:28:47.021Z,36.26
2024-02-23T13:31:14.731Z,36.49
2024-02-23T13:33:41.670Z,36.59
2024-02-23T13:36:08.383Z,37.22
2024-02-23T13:38:39.428Z,36.81
2024-02-23T13:41:07.032Z,37.20
2024-02-23T13:43:34.803Z,37.55
2024-02-23T13:46:01.571Z,37.35
2024-02-23T13:48:28.321Z,38.01
2024-02-23T13:50:55.017Z,37.89
2024-02-23T13:53:21.762Z,38.50
2024-02-23T13:55:48.975Z,38.77
2024-02-23T13:58:15.553Z,38.73
2024-02-23T14:00:42.190Z,38.81
2024-02-23T14:03:09.438Z,38.85
2024-02-23T14:05:36.412Z,39.19
2024-02-23T14:08:08.067Z,38.72
2024-02-23T14:10:35.613Z,39.07
2024-02-23T14:13:02.113Z,39.41
2024-02-23T14:15:28.679Z,39.66
2024-02-23T14:17:55.253Z,39.92
2024-02-23T14:20:21.775Z,39.67
2024-02-23T14:22:48.459Z,39.48
2024-02-23T14:25:14.964Z,39.82
2024-02-23T14:27:41.410Z,40.10
2024-02-23T14:30:09.432Z,39.91
2024-02-23T14:32:36.290Z,39.37
2024-02-23T14:35:04.918Z,39.65
2024-02-23T14:37:31.527Z,39.58
2024-02-23T14:39:57.946Z,40.04
2024-02-23T14:42:24.657Z,40.24
2024-02-23T14:44:51.376Z,40.49
2024-02-23T14:47:20.370Z,40.50
2024-02-23T14:49:48.608Z,40.50
2024-02-23T14:52:16.124Z,40.51
2024-02-23T14:54:42.678Z,40.43
2024-02-23T14:57:09.358Z,40.63
2024-02-23T14:59:42.664Z,40.67
2024-02-23T15:02:10.513Z,40.72
2024-02-23T15:04:37.029Z,40.98
2024-02-23T15:07:03.580Z,40.43
2024-02-23T15:09:30.020Z,40.40
2024-02-23T15:11:56.590Z,40.70
2024-02-23T15:14:23.350Z,40.75
2024-02-23T15:16:50.094Z,40.91
2024-02-23T15:19:16.668Z,41.04
2024-02-23T15:21:43.694Z,41.06
2024-02-23T15:24:10.637Z,41.07
2024-02-23T15:26:37.236Z,41.21
2024-02-23T15:29:04.636Z,41.09
2024-02-23T15:31:31.375Z,41.06
2024-02-23T15:33:59.330Z,40.70
2024-02-23T15:36:25.951Z,41.04
2024-02-23T15:38:54.242Z,40.86
2024-02-23T15:41:20.731Z,40.86
2024-02-23T15:43:47.216Z,40.99
2024-02-23T15:46:13.640Z,41.00
2024-02-23T15:48:40.293Z,41.27
2024-02-23T15:51:15.328Z,41.27
2024-02-23T15:53:50.546Z,41.10
2024-02-23T15:56:17.063Z,41.18
2024-02-23T15:58:43.512Z,41.04
2024-02-23T16:01:10.040Z,41.02
2024-02-23T16:03:36.504Z,40.76
2024-02-23T16:06:03.254Z,40.93
2024-02-23T16:08:39.961Z,40.70
2024-02-23T16:11:06.689Z,40.68
2024-02-23T16:13:33.269Z,40.51
2024-02-23T16:16:00.150Z,40.52
2024-02-23T16:18:26.740Z,40.60
2024-02-23T16:20:53.956Z,40.99
2024-02-23T16:23:20.432Z,40.94
2024-02-23T16:25:46.871Z,40.92
2024-02-23T16:28:13.320Z,40.96
2024-02-23T16:30:40.279Z,40.98
2024-02-23T16:33:07.337Z,40.90
2024-02-23T16:35:34.020Z,40.76
2024-02-23T16:38:01.119Z,40.71
2024-02-23T16:40:30.335Z,40.82
2024-02-23T16:42:57.469Z,40.84
2024-02-23T16:45:28.354Z,40.94
2024-02-23T16:47:55.904Z,40.92
2024-02-23T16:50:22.564Z,40.93
2024-02-23T16:52:49.325Z,41.01
2024-02-23T16:55:16.846Z,41.03
2024-02-23T16:57:43.295Z,40.76
2024-02-23T17:00:10.058Z,40.90
2024-02-23T17:02:36.623Z,40.96
2024-02-23T17:05:03.829Z,41.41
2024-02-23T17:07:30.939Z,41.87
2024-02-23T17:09:58.394Z,41.33
2024-02-23T17:12:25.436Z,40.96
2024-02-23T17:14:51.938Z,40.97
2024-02-23T17:17:21.683Z,40.74
2024-02-23T17:19:48.335Z,40.85
2024-02-23T17:22:14.962Z,40.75
2024-02-23T17:24:41.462Z,40.67
2024-02-23T17:27:08.001Z,40.91
2024-02-23T17:29:35.138Z,40.74
2024-02-23T17:32:02.066Z,40.62
2024-02-23T17:34:28.618Z,40.69
2024-02-23T17:36:55.106Z,40.66
2024-02-23T17:39:21.998Z,40.75
2024-02-23T17:41:48.632Z,40.67
2024-02-23T17:44:18.825Z,40.61
2024-02-23T17:46:48.793Z,40.50
2024-02-23T17:49:16.328Z,40.38
2024-02-23T17:51:43.437Z,40.36
2024-02-23T17:54:10.006Z,40.36
2024-02-23T17:56:36.591Z,40.26
2024-02-23T17:59:04.017Z,40.28
2024-02-23T18:01:30.766Z,40.20
2024-02-23T18:03:57.316Z,40.30
2024-02-23T18:06:24.947Z,40.27
2024-02-23T18:08:51.649Z,40.25
2024-02-23T18:11:18.285Z,40.26
2024-02-23T18:13:45.484Z,40.18
2024-02-23T18:16:14.580Z,40.27
2024-02-23T18:18:41.156Z,40.13
2024-02-23T18:21:07.720Z,39.90
2024-02-23T18:23:34.979Z,40.13
2024-02-23T18:26:01.509Z,40.24
2024-02-23T18:28:28.050Z,40.06
2024-02-23T18:30:54.494Z,40.00
2024-02-23T18:33:20.976Z,40.00
2024-02-23T18:35:47.576Z,39.94
2024-02-23T18:38:14.034Z,39.92
2024-02-23T18:40:41.099Z,39.88
2024-02-23T18:43:07.566Z,39.98
2024-02-23T18:45:35.705Z,39.92
2024-02-23T18:48:02.227Z,39.88
2024-02-23T18:50:28.809Z,39.90
2024-02-23T18:52:55.410Z,39.79
2024-02-23T18:55:22.744Z,40.04
2024-02-23T18:57:50.455Z,39.89
2024-02-23T19:00:17.076Z,39.88
2024-02-23T19:02:46.118Z,39.91
2024-02-23T19:05:13.867Z,39.85
2024-02-23T19:07:40.423Z,39.83
2024-02-23T19:10:07.865Z,39.80
2024-02-23T19:12:35.907Z,39.67
2024-02-23T19:15:02.458Z,39.80
2024-02-23T19:17:29.144Z,39.80
2024-02-23T19:19:55.738Z,39.70
2024-02-23T19:22:23.877Z,39.56
2024-02-23T19:24:50.599Z,39.66
2024-02-23T19:27:17.055Z,39.70
2024-02-23T19:29:43.562Z,39.67
2024-02-23T19:32:10.086Z,39.67
2024-02-23T19:34:36.601Z,39.69
2024-02-23T19:37:03.130Z,39.65
2024-02-23T19:39:30.771Z,39.57
2024-02-23T19:41:57.550Z,39.56
2024-02-23T19:44:23.996Z,39.50
2024-02-23T19:46:50.444Z,39.58
2024-02-23T19:49:18.117Z,39.55
2024-02-23T19:51:44.635Z,39.46
2024-02-23T19:54:11.063Z,39.41
2024-02-23T19:56:37.696Z,39.39
2024-02-23T19:59:04.871Z,39.44
2024-02-23T20:01:31.424Z,39.38
2024-02-23T20:03:57.910Z,39.35
2024-02-23T20:06:24.421Z,39.29
2024-02-23T20:08:50.932Z,39.37
2024-02-23T20:11:17.621Z,39.30
2024-02-23T20:13:44.118Z,39.27
2024-02-23T20:16:10.826Z,39.36
2024-02-23T20:18:37.335Z,39.27
2024-02-23T20:21:04.001Z,39.15
2024-02-23T20:23:30.562Z,38.96
2024-02-23T20:25:57.061Z,39.09
2024-02-23T20:28:23.498Z,39.08
2024-02-23T20:30:51.041Z,39.17
2024-02-23T20:33:17.756Z,39.25
2024-02-23T20:35:44.357Z,39.14
2024-02-23T20:38:10.863Z,39.07
2024-02-23T20:40:37.322Z,39.00
2024-02-23T20:43:03.817Z,38.99
2024-02-23T20:45:30.206Z,38.94
2024-02-23T20:47:58.671Z,38.96
2024-02-23T20:50:25.344Z,39.04
2024-02-23T20:52:51.823Z,38.95
2024-02-23T20:55:18.438Z,39.08
2024-02-23T20:57:45.023Z,39.00
2024-02-23T21:00:11.891Z,39.02
2024-02-23T21:02:39.860Z,38.99
2024-02-23T21:05:06.870Z,38.90
2024-02-23T21:07:33.446Z,38.89
2024-02-23T21:10:00.398Z,38.90
2024-02-23T21:12:26.833Z,38.86
2024-02-23T21:14:53.439Z,38.90
2024-02-23T21:17:20.185Z,38.90
2024-02-23T21:19:46.593Z,38.85
2024-02-23T21:22:13.022Z,38.84
2024-02-23T21:24:43.577Z,38.96
2024-02-23T21:27:11.447Z,38.94
2024-02-23T21:29:38.052Z,38.89
2024-02-23T21:32:04.787Z,38.83
2024-02-23T21:34:31.252Z,38.87
2024-02-23T21:36:59.484Z,38.92
2024-02-23T21:39:26.888Z,38.92
2024-02-23T21:41:53.394Z,38.70
2024-02-23T21:44:20.015Z,38.72
2024-02-23T21:46:46.444Z,38.77
2024-02-23T21:49:13.027Z,38.71
2024-02-23T21:51:39.494Z,38.80
2024-02-23T21:54:06.045Z,38.61
2024-02-23T21:56:32.472Z,38.69
2024-02-23T21:58:59.634Z,38.63
2024-02-23T22:01:26.154Z,38.71
2024-02-23T22:03:54.110Z,38.67
2024-02-23T22:06:23.903Z,38.65
2024-02-23T22:08:50.495Z,38.69
2024-02-23T22:11:17.222Z,38.63
2024-02-23T22:13:43.991Z,38.58
2024-02-23T22:16:10.454Z,38.39
2024-02-23T22:18:36.905Z,38.56
2024-02-23T22:21:04.194Z,38.55
2024-02-23T22:23:30.669Z,38.62
2024-02-23T22:25:57.161Z,38.58
2024-02-23T22:28:23.603Z,38.54
2024-02-23T22:30:50.369Z,38.57
2024-02-23T22:33:17.053Z,38.51
2024-02-23T22:35:43.689Z,38.45
2024-02-23T22:38:10.204Z,38.43
2024-02-23T22:40:37.126Z,38.45
2024-02-23T22:43:03.698Z,38.41
2024-02-23T22:45:30.135Z,38.48
2024-02-23T22:47:56.713Z,38.46
2024-02-23T22:50:23.271Z,38.48
2024-02-23T22:52:49.749Z,38.50
2024-02-23T22:55:16.217Z,38.48
2024-02-23T22:57:42.695Z,38.55
2024-02-23T23:00:10.651Z,38.53
2024-02-23T23:02:37.354Z,38.47
2024-02-23T23:05:04.050Z,38.50
2024-02-23T23:07:32.499Z,38.53
2024-02-23T23:09:59.009Z,38.57
2024-02-23T23:12:25.569Z,38.52
2024-02-23T23:14:51.996Z,38.49
2024-02-23T23:17:20.479Z,38.46
2024-02-23T23:19:47.019Z,38.48
2024-02-23T23:22:13.471Z,38.41
2024-02-23T23:24:39.901Z,38.40
2024-02-23T23:27:06.321Z,38.36
2024-02-23T23:29:32.848Z,38.26
2024-02-23T23:31:59.312Z,38.38
2024-02-23T23:34:26.024Z,38.36
2024-02-23T23:36:53.035Z,38.29
2024-02-23T23:39:20.341Z,38.23
2024-02-23T23:41:48.507Z,38.23
2024-02-23T23:44:15.184Z,38.33
2024-02-23T23:46:43.168Z,38.36
2024-02-23T23:49:09.617Z,38.41
2024-02-23T23:51:45.703Z,38.26
2024-02-23T23:54:18.918Z,38.16
2024-02-23T23:56:45.393Z,38.25
2024-02-23T23:59:11.867Z,38.09
